createdAt,value
2018-01-18T00:01:37.973Z,7.13
2018-01-18T00:04:08.575Z,6.10
2018-01-18T00:06:39.845Z,5.67
2018-01-18T00:09:09.940Z,7.50
2018-01-18T00:11:43.336Z,5.77
2018-01-18T00:14:20.785Z,5.80
2018-01-18T00:16:50.685Z,7.80
2018-01-18T00:19:20.121Z,4.53
2018-01-18T00:21:52.463Z,9.00
2018-01-18T00:24:22.490Z,4.60
2018-01-18T00:26:54.864Z,7.03
2018-01-18T00:29:28.512Z,6.37
2018-01-18T00:31:59.872Z,9.73
2018-01-18T00:34:37.218Z,6.00
2018-01-18T00:37:07.477Z,5.60
2018-01-18T00:39:40.205Z,9.70
2018-01-18T00:42:10.172Z,7.50
2018-01-18T00:44:41.919Z,6.87
2018-01-18T00:47:15.841Z,5.43
2018-01-18T00:52:18.682Z,5.77
2018-01-18T00:54:50.259Z,3.80
2018-01-18T00:57:19.826Z,5.33
2018-01-18T00:59:49.928Z,3.77
2018-01-18T01:02:23.989Z,3.20
2018-01-18T01:04:55.169Z,3.30
2018-01-18T01:07:27.309Z,4.57
2018-01-18T01:09:55.698Z,4.37
2018-01-18T01:12:25.737Z,3.97
2018-01-18T01:14:55.298Z,3.90
2018-01-18T01:17:24.637Z,4.27
2018-01-18T01:19:54.566Z,4.40
2018-01-18T01:22:23.120Z,4.50
2018-01-18T01:24:56.272Z,3.17
2018-01-18T01:27:33.510Z,3.30
2018-01-18T01:30:03.010Z,5.27
2018-01-18T01:32:34.845Z,4.37
2018-01-18T01:35:04.327Z,3.97
2018-01-18T01:37:36.016Z,4.10
2018-01-18T01:40:07.099Z,4.60
2018-01-18T01:42:36.592Z,4.90
2018-01-18T01:45:05.412Z,3.50
2018-01-18T01:47:33.458Z,5.80
2018-01-18T01:50:02.660Z,8.57
2018-01-18T01:52:30.742Z,3.33
2018-01-18T01:54:59.203Z,3.93
2018-01-18T01:57:31.016Z,3.67
2018-01-18T01:59:59.974Z,4.47
2018-01-18T02:02:28.244Z,3.83
2018-01-18T02:04:57.399Z,5.33
2018-01-18T02:07:27.282Z,6.33
2018-01-18T02:09:58.683Z,4.00
2018-01-18T02:12:27.962Z,5.13
2018-01-18T02:14:56.664Z,3.50
2018-01-18T02:17:25.154Z,3.77
2018-01-18T02:22:34.300Z,3.10
2018-01-18T02:25:03.474Z,9.47
2018-01-18T02:27:33.156Z,6.90
2018-01-18T02:30:02.269Z,5.30
2018-01-18T02:32:31.476Z,4.47
2018-01-18T02:35:00.179Z,3.80
2018-01-18T02:37:29.362Z,3.10
2018-01-18T02:39:58.492Z,2.80
2018-01-18T02:42:29.421Z,3.10
2018-01-18T02:45:00.386Z,5.03
2018-01-18T02:47:31.347Z,3.13
2018-01-18T02:50:00.032Z,2.20
2018-01-18T02:52:30.474Z,2.40
2018-01-18T02:54:59.242Z,3.97
2018-01-18T02:57:28.308Z,2.10
2018-01-18T02:59:57.194Z,2.17
2018-01-18T03:02:28.775Z,3.40
2018-01-18T03:05:00.193Z,6.77
2018-01-18T03:07:32.255Z,2.40
2018-01-18T03:10:01.169Z,5.33
2018-01-18T03:12:30.704Z,9.13
2018-01-18T03:14:59.486Z,2.73
2018-01-18T03:17:28.883Z,2.63
2018-01-18T03:19:58.864Z,4.77
2018-01-18T03:22:28.953Z,2.83
2018-01-18T03:25:00.534Z,3.40
2018-01-18T03:27:30.623Z,2.70
2018-01-18T03:32:39.506Z,4.50
2018-01-18T03:35:14.319Z,1.77
2018-01-18T03:37:43.465Z,9.33
2018-01-18T03:40:17.747Z,4.47
2018-01-18T03:42:47.858Z,3.27
2018-01-18T03:45:18.192Z,3.53
2018-01-18T03:47:48.786Z,2.27
2018-01-18T03:50:19.716Z,2.40
2018-01-18T03:52:50.309Z,5.70
2018-01-18T03:55:19.256Z,3.47
2018-01-18T03:57:48.966Z,3.37
2018-01-18T04:00:19.071Z,5.13
2018-01-18T04:02:47.914Z,5.30
2018-01-18T04:05:17.105Z,5.23
2018-01-18T04:07:50.649Z,6.80
2018-01-18T04:10:21.152Z,5.23
2018-01-18T04:12:50.343Z,7.60
2018-01-18T04:15:20.161Z,7.00
2018-01-18T04:17:49.866Z,4.07
2018-01-18T04:20:18.715Z,2.90
2018-01-18T04:22:50.265Z,10.67
2018-01-18T04:25:52.816Z,6.80
2018-01-18T04:28:20.682Z,4.80
2018-01-18T04:30:49.729Z,3.50
2018-01-18T04:33:19.579Z,5.33
2018-01-18T04:35:48.627Z,2.50
2018-01-18T04:38:25.271Z,2.87
2018-01-18T04:40:53.122Z,3.60
2018-01-18T04:43:22.277Z,4.70
2018-01-18T04:45:50.087Z,4.60
2018-01-18T04:48:17.931Z,3.10
2018-01-18T04:50:47.839Z,5.33
2018-01-18T04:53:18.190Z,10.03
2018-01-18T04:55:47.896Z,2.93
2018-01-18T04:58:18.311Z,2.83
2018-01-18T05:00:47.813Z,3.67
2018-01-18T05:03:19.006Z,3.77
2018-01-18T05:05:48.042Z,4.00
2018-01-18T05:08:17.763Z,9.00
2018-01-18T05:10:47.407Z,3.20
2018-01-18T05:13:16.353Z,3.23
2018-01-18T05:15:47.325Z,3.03
2018-01-18T05:18:18.449Z,3.63
2018-01-18T05:20:46.356Z,5.30
2018-01-18T05:23:15.830Z,3.03
2018-01-18T05:25:46.578Z,4.53
2018-01-18T05:28:15.133Z,5.40
2018-01-18T05:30:46.184Z,6.57
2018-01-18T05:33:14.210Z,8.20
2018-01-18T05:35:42.230Z,3.80
2018-01-18T05:38:11.040Z,2.27
2018-01-18T05:40:41.929Z,7.40
2018-01-18T05:43:11.474Z,2.00
2018-01-18T05:45:41.128Z,3.40
2018-01-18T05:48:10.727Z,6.43
2018-01-18T05:50:40.499Z,4.00
2018-01-18T05:53:10.241Z,5.00
2018-01-18T05:55:38.263Z,7.00
2018-01-18T05:58:08.136Z,11.00
2018-01-18T06:00:36.273Z,6.43
2018-01-18T06:03:05.917Z,11.63
2018-01-18T06:08:11.043Z,6.40
2018-01-18T06:10:39.810Z,4.20
2018-01-18T06:13:10.894Z,3.57
2018-01-18T06:15:39.687Z,6.00
2018-01-18T06:18:08.481Z,5.57
2018-01-18T06:20:39.898Z,3.13
2018-01-18T06:23:08.925Z,3.60
2018-01-18T06:25:37.943Z,7.40
2018-01-18T06:28:06.327Z,12.10
2018-01-18T06:30:34.424Z,3.70
2018-01-18T06:33:10.654Z,3.27
2018-01-18T06:35:38.828Z,4.30
2018-01-18T06:38:07.664Z,5.10
2018-01-18T06:40:37.265Z,5.35
2018-01-18T06:43:08.779Z,5.53
2018-01-18T06:45:39.077Z,7.60
2018-01-18T06:48:07.123Z,4.10
2018-01-18T06:50:35.362Z,6.30
2018-01-18T06:53:05.161Z,4.93
2018-01-18T06:55:36.601Z,5.67
2018-01-18T06:58:09.000Z,5.77
2018-01-18T07:00:40.121Z,12.73
2018-01-18T07:03:12.470Z,3.37
2018-01-18T07:05:41.278Z,4.63
2018-01-18T07:08:10.152Z,5.50
2018-01-18T07:10:38.551Z,7.50
2018-01-18T07:13:08.178Z,4.20
2018-01-18T07:15:36.537Z,6.10
2018-01-18T07:18:05.230Z,2.53
2018-01-18T07:20:35.166Z,3.80
2018-01-18T07:23:05.769Z,5.20
2018-01-18T07:25:34.535Z,3.33
2018-01-18T07:28:05.605Z,16.80
2018-01-18T07:30:35.369Z,5.40
2018-01-18T07:33:06.661Z,5.77
2018-01-18T07:35:35.982Z,5.57
2018-01-18T07:38:04.608Z,3.47
2018-01-18T07:40:32.653Z,4.40
2018-01-18T07:43:00.649Z,3.57
2018-01-18T07:45:31.119Z,6.23
2018-01-18T07:48:02.577Z,6.15
2018-01-18T07:50:37.704Z,10.57
2018-01-18T07:53:07.933Z,3.57
2018-01-18T07:55:35.975Z,3.63
2018-01-18T07:58:07.258Z,3.83
2018-01-18T08:00:35.424Z,6.33
2018-01-18T08:03:09.035Z,2.30
2018-01-18T08:05:36.825Z,3.27
2018-01-18T08:08:04.602Z,3.17
2018-01-18T08:10:32.430Z,8.10
2018-01-18T08:13:00.435Z,6.47
2018-01-18T08:15:28.260Z,3.60
2018-01-18T08:17:56.048Z,4.80
2018-01-18T08:20:23.870Z,3.47
2018-01-18T08:22:51.643Z,5.27
2018-01-18T08:25:19.475Z,7.67
2018-01-18T08:27:47.326Z,6.03
2018-01-18T08:30:15.181Z,9.73
2018-01-18T08:32:42.947Z,7.80
2018-01-18T08:35:11.911Z,8.30
2018-01-18T08:37:39.675Z,8.30
2018-01-18T08:40:07.515Z,5.67
2018-01-18T08:42:36.112Z,4.27
2018-01-18T08:45:03.948Z,10.33
2018-01-18T08:47:31.719Z,8.10
2018-01-18T08:50:00.242Z,15.00
2018-01-18T08:52:27.994Z,4.70
2018-01-18T08:54:55.776Z,7.90
2018-01-18T08:57:23.570Z,4.77
2018-01-18T08:59:51.344Z,9.30
2018-01-18T09:02:19.119Z,3.33
2018-01-18T09:04:47.307Z,5.73
2018-01-18T09:07:15.123Z,10.23
2018-01-18T09:09:42.998Z,3.70
2018-01-18T09:12:10.793Z,7.67
2018-01-18T09:14:39.413Z,3.30
2018-01-18T09:17:07.206Z,5.80
2018-01-18T09:19:35.006Z,3.53
2018-01-18T09:22:02.848Z,2.83
2018-01-18T09:24:30.699Z,6.23
2018-01-18T09:26:58.499Z,4.03
2018-01-18T09:29:27.147Z,4.53
2018-01-18T09:31:54.974Z,7.73
2018-01-18T09:34:22.755Z,8.40
2018-01-18T09:36:50.555Z,13.50
2018-01-18T09:39:18.326Z,7.43
2018-01-18T09:41:46.112Z,8.40
2018-01-18T09:44:13.958Z,5.40
2018-01-18T09:46:41.751Z,8.10
2018-01-18T09:49:09.523Z,7.33
2018-01-18T09:51:38.080Z,6.57
2018-01-18T09:54:05.885Z,2.87
2018-01-18T09:56:33.657Z,4.23
2018-01-18T09:59:01.949Z,4.83
2018-01-18T10:01:29.790Z,5.80
2018-01-18T10:03:57.573Z,2.93
2018-01-18T10:06:25.355Z,3.57
2018-01-18T10:08:53.209Z,1.80
2018-01-18T10:11:21.062Z,7.13
2018-01-18T10:13:48.884Z,3.73
2018-01-18T10:16:17.445Z,8.30
2018-01-18T10:18:46.287Z,5.50
2018-01-18T10:21:14.192Z,3.13
2018-01-18T10:23:41.954Z,6.00
2018-01-18T10:26:09.757Z,3.62
2018-01-18T10:28:37.530Z,2.30
2018-01-18T10:31:05.394Z,4.47
2018-01-18T10:33:33.201Z,2.72
2018-01-18T10:36:01.150Z,3.33
2018-01-18T10:38:28.963Z,5.97
2018-01-18T10:40:56.767Z,4.95
2018-01-18T10:43:24.520Z,5.73
2018-01-18T10:45:54.789Z,4.72
2018-01-18T10:48:22.555Z,4.33
2018-01-18T10:50:50.403Z,4.20
2018-01-18T10:53:18.179Z,2.80
2018-01-18T10:55:46.001Z,5.37
2018-01-18T10:58:13.854Z,12.77
2018-01-18T11:00:42.458Z,5.10
2018-01-18T11:03:10.262Z,3.97
2018-01-18T11:05:38.098Z,6.25
2018-01-18T11:08:05.884Z,5.97
2018-01-18T11:10:33.713Z,5.73
2018-01-18T11:13:01.587Z,12.77
2018-01-18T11:15:29.471Z,3.83
2018-01-18T11:17:57.349Z,4.37
2018-01-18T11:20:25.128Z,5.78
2018-01-18T11:22:52.940Z,4.83
2018-01-18T11:25:20.698Z,7.60
2018-01-18T11:27:49.282Z,4.27
2018-01-18T11:30:17.868Z,6.80
2018-01-18T11:32:45.714Z,4.93
2018-01-18T11:35:14.268Z,2.93
2018-01-18T11:37:42.189Z,6.30
2018-01-18T11:40:09.966Z,7.43
2018-01-18T11:42:37.842Z,10.97
2018-01-18T11:45:05.734Z,3.17
2018-01-18T11:47:33.512Z,4.20
2018-01-18T11:50:02.063Z,2.30
2018-01-18T11:52:29.880Z,10.80
2018-01-18T11:54:58.442Z,4.10
2018-01-18T11:57:26.289Z,3.47
2018-01-18T11:59:54.135Z,5.63
2018-01-18T12:02:22.048Z,2.80
2018-01-18T12:04:50.626Z,3.77
2018-01-18T12:07:18.420Z,8.23
2018-01-18T12:09:56.671Z,6.93
2018-01-18T12:12:24.602Z,6.40
2018-01-18T12:14:52.401Z,2.70
2018-01-18T12:17:20.211Z,2.47
2018-01-18T12:19:48.738Z,3.43
2018-01-18T12:22:16.548Z,7.03
2018-01-18T12:24:45.108Z,6.57
2018-01-18T12:27:12.878Z,2.93
2018-01-18T12:29:40.673Z,3.67
2018-01-18T12:32:09.213Z,2.60
2018-01-18T12:34:36.998Z,4.73
2018-01-18T12:37:04.891Z,3.23
2018-01-18T12:39:33.444Z,3.63
2018-01-18T12:42:02.037Z,5.63
2018-01-18T12:44:29.847Z,3.63
2018-01-18T12:46:57.690Z,7.80
2018-01-18T12:49:25.474Z,3.87
2018-01-18T12:51:53.252Z,6.90
2018-01-18T12:54:21.033Z,2.60
2018-01-18T12:56:48.812Z,4.70
2018-01-18T12:59:16.604Z,4.47
2018-01-18T13:01:45.200Z,3.73
2018-01-18T13:04:13.743Z,7.10
2018-01-18T13:06:41.526Z,1.73
2018-01-18T13:09:10.123Z,5.90
2018-01-18T13:11:38.703Z,6.63
2018-01-18T13:14:07.251Z,5.87
2018-01-18T13:16:35.047Z,5.20
2018-01-18T13:19:03.644Z,5.33
2018-01-18T13:21:31.431Z,4.80
2018-01-18T13:23:59.220Z,6.60
2018-01-18T13:26:26.979Z,7.30
2018-01-18T13:28:54.743Z,15.10
2018-01-18T13:31:22.501Z,2.93
2018-01-18T13:33:50.315Z,6.60
2018-01-18T13:36:18.863Z,6.73
2018-01-18T13:38:46.619Z,6.63
2018-01-18T13:41:14.403Z,6.50
2018-01-18T13:43:42.250Z,5.87
2018-01-18T13:46:11.331Z,4.80
2018-01-18T13:48:39.151Z,6.07
2018-01-18T13:51:07.790Z,7.33
2018-01-18T13:53:35.753Z,5.47
2018-01-18T13:56:03.630Z,11.23
2018-01-18T13:58:32.216Z,5.47
2018-01-18T14:01:00.066Z,12.53
2018-01-18T14:03:28.680Z,5.10
2018-01-18T14:05:57.342Z,3.07
2018-01-18T14:08:25.161Z,5.10
2018-01-18T14:10:53.794Z,8.33
2018-01-18T14:13:21.612Z,9.20
2018-01-18T14:15:49.379Z,3.53
2018-01-18T14:18:17.913Z,5.00
2018-01-18T14:20:45.725Z,3.47
2018-01-18T14:23:13.636Z,4.70
2018-01-18T14:25:41.434Z,12.50
2018-01-18T14:28:09.973Z,5.33
2018-01-18T14:30:37.749Z,4.53
2018-01-18T14:33:05.625Z,7.93
2018-01-18T14:35:33.436Z,7.87
2018-01-18T14:38:01.229Z,5.00
2018-01-18T14:40:29.276Z,5.00
2018-01-18T14:42:57.080Z,8.40
2018-01-18T14:45:24.958Z,8.57
2018-01-18T14:47:52.805Z,9.60
2018-01-18T14:50:20.583Z,4.83
2018-01-18T14:52:48.445Z,17.77
2018-01-18T14:55:16.278Z,9.50
2018-01-18T14:57:44.142Z,9.80
2018-01-18T15:00:12.924Z,8.67
2018-01-18T15:02:40.702Z,8.87
2018-01-18T15:05:08.466Z,11.30
2018-01-18T15:07:36.444Z,8.77
2018-01-18T15:10:04.400Z,11.67
2018-01-18T15:12:32.204Z,23.50
2018-01-18T15:15:00.024Z,21.87
2018-01-18T15:17:27.814Z,10.83
2018-01-18T15:19:55.597Z,13.63
2018-01-18T15:22:23.449Z,12.40
2018-01-18T15:24:51.375Z,11.90
2018-01-18T15:27:19.151Z,14.90
2018-01-18T15:29:52.776Z,10.35
2018-01-18T15:32:20.896Z,13.53
2018-01-18T15:34:49.516Z,13.23
2018-01-18T15:37:17.307Z,22.60
2018-01-18T15:39:47.336Z,12.13
2018-01-18T15:42:17.351Z,13.57
2018-01-18T15:44:45.190Z,14.00
2018-01-18T15:47:13.015Z,17.30
2018-01-18T15:49:40.892Z,11.50
2018-01-18T15:52:12.084Z,11.83
2018-01-18T15:54:39.984Z,17.17
2018-01-18T15:57:08.541Z,12.70
2018-01-18T15:59:36.613Z,20.80
2018-01-18T16:02:04.418Z,12.90
2018-01-18T16:04:33.025Z,17.40
2018-01-18T16:07:01.087Z,19.30
2018-01-18T16:09:28.871Z,19.37
2018-01-18T16:11:56.649Z,17.60
2018-01-18T16:14:24.457Z,12.90
2018-01-18T16:16:53.010Z,18.40
2018-01-18T16:19:23.099Z,32.63
2018-01-18T16:21:50.898Z,30.37
2018-01-18T16:24:18.695Z,17.27
2018-01-18T16:26:46.505Z,20.77
2018-01-18T16:29:19.821Z,17.00
2018-01-18T16:31:48.015Z,15.30
2018-01-18T16:34:15.864Z,12.83
2018-01-18T16:36:44.937Z,23.87
2018-01-18T16:39:12.736Z,23.37
2018-01-18T16:41:40.603Z,23.97
2018-01-18T16:44:08.405Z,12.73
2018-01-18T16:46:36.197Z,15.33
2018-01-18T16:49:04.108Z,14.70
2018-01-18T16:51:31.930Z,19.83
2018-01-18T16:53:59.748Z,29.90
2018-01-18T16:56:28.334Z,26.70
2018-01-18T16:58:56.127Z,17.40
2018-01-18T17:01:23.901Z,16.13
2018-01-18T17:03:51.664Z,16.33
2018-01-18T17:06:19.479Z,31.43
2018-01-18T17:08:47.342Z,27.93
2018-01-18T17:11:15.985Z,23.57
2018-01-18T17:13:43.858Z,31.30
2018-01-18T17:16:11.803Z,23.47
2018-01-18T17:18:39.586Z,19.77
2018-01-18T17:21:07.514Z,26.83
2018-01-18T17:23:35.434Z,20.23
2018-01-18T17:26:03.323Z,15.07
2018-01-18T17:28:31.866Z,15.97
2018-01-18T17:30:59.646Z,19.23
2018-01-18T17:33:27.481Z,24.70
2018-01-18T17:35:55.371Z,24.63
2018-01-18T17:38:24.148Z,15.17
2018-01-18T17:40:52.051Z,14.10
2018-01-18T17:43:19.910Z,21.57
2018-01-18T17:45:47.725Z,16.20
2018-01-18T17:48:15.554Z,16.93
2018-01-18T17:50:44.935Z,14.60
2018-01-18T17:53:13.651Z,21.03
2018-01-18T17:55:41.469Z,18.17
2018-01-18T17:58:10.005Z,26.00
2018-01-18T18:00:37.919Z,20.27
2018-01-18T18:03:05.723Z,30.67
2018-01-18T18:05:34.327Z,21.37
2018-01-18T18:08:02.158Z,25.73
2018-01-18T18:10:31.648Z,25.33
2018-01-18T18:13:00.365Z,19.30
2018-01-18T18:15:29.146Z,20.03
2018-01-18T18:17:57.002Z,43.40
2018-01-18T18:20:25.563Z,41.10
2018-01-18T18:22:53.424Z,26.13
2018-01-18T18:25:21.215Z,30.23
2018-01-18T18:27:49.092Z,32.43
2018-01-18T18:30:16.896Z,24.40
2018-01-18T18:32:44.765Z,24.17
2018-01-18T18:35:12.779Z,23.40
2018-01-18T18:37:40.738Z,26.87
2018-01-18T18:40:08.610Z,25.90
2018-01-18T18:42:40.759Z,21.83
2018-01-18T18:45:09.456Z,22.50
2018-01-18T18:47:37.238Z,20.67
2018-01-18T18:50:05.140Z,20.73
2018-01-18T18:52:33.768Z,18.90
2018-01-18T18:55:01.588Z,29.30
2018-01-18T18:57:29.486Z,28.17
2018-01-18T18:59:57.326Z,22.00
2018-01-18T19:02:25.133Z,23.37
2018-01-18T19:04:52.968Z,24.47
2018-01-18T19:07:20.802Z,23.97
2018-01-18T19:09:48.625Z,32.97
2018-01-18T19:12:16.546Z,26.40
2018-01-18T19:14:46.349Z,25.60
2018-01-18T19:17:17.277Z,25.43
2018-01-18T19:19:45.124Z,27.20
2018-01-18T19:22:12.936Z,27.33
2018-01-18T19:24:40.745Z,21.33
2018-01-18T19:27:08.562Z,20.07
2018-01-18T19:29:36.382Z,26.93
2018-01-18T19:32:04.245Z,32.00
2018-01-18T19:34:32.076Z,21.47
2018-01-18T19:36:59.919Z,26.83
2018-01-18T19:39:27.709Z,18.10
2018-01-18T19:41:56.368Z,24.87
2018-01-18T19:44:24.234Z,19.90
2018-01-18T19:46:52.050Z,24.67
2018-01-18T19:49:19.850Z,18.10
2018-01-18T19:51:47.673Z,26.87
2018-01-18T19:54:19.339Z,26.47
2018-01-18T19:56:47.153Z,14.80
2018-01-18T19:59:14.953Z,18.80
2018-01-18T20:01:42.826Z,32.67
2018-01-18T20:04:10.586Z,67.40
2018-01-18T20:06:38.523Z,41.80
2018-01-18T20:09:06.339Z,30.53
2018-01-18T20:11:34.145Z,22.53
2018-01-18T20:14:01.958Z,29.27
2018-01-18T20:16:29.754Z,25.03
2018-01-18T20:18:57.547Z,31.80
2018-01-18T20:21:25.328Z,30.90
2018-01-18T20:23:53.109Z,20.50
2018-01-18T20:26:20.917Z,20.10
2018-01-18T20:28:49.655Z,23.33
2018-01-18T20:31:17.442Z,21.00
2018-01-18T20:33:45.296Z,19.63
2018-01-18T20:36:13.178Z,22.33
2018-01-18T20:38:41.739Z,18.90
2018-01-18T20:41:09.563Z,17.80
2018-01-18T20:43:37.344Z,17.60
2018-01-18T20:46:05.233Z,18.93
2018-01-18T20:48:33.121Z,15.80
2018-01-18T20:51:00.908Z,16.60
2018-01-18T20:53:29.470Z,21.83
2018-01-18T20:55:57.260Z,17.30
2018-01-18T20:58:25.051Z,17.53
2018-01-18T21:00:52.827Z,18.90
2018-01-18T21:03:20.599Z,18.03
2018-01-18T21:05:48.372Z,17.70
2018-01-18T21:08:16.134Z,16.57
2018-01-18T21:10:43.957Z,23.27
2018-01-18T21:13:16.237Z,18.53
2018-01-18T21:15:44.384Z,18.70
2018-01-18T21:18:13.023Z,19.43
2018-01-18T21:20:40.873Z,26.73
2018-01-18T21:23:09.236Z,27.80
2018-01-18T21:25:37.167Z,31.43
2018-01-18T21:28:05.043Z,37.33
2018-01-18T21:30:33.624Z,24.20
2018-01-18T21:33:03.671Z,22.70
2018-01-18T21:35:31.724Z,22.13
2018-01-18T21:37:59.632Z,31.00
2018-01-18T21:40:27.626Z,18.03
2018-01-18T21:42:55.416Z,29.10
2018-01-18T21:45:23.999Z,26.70
2018-01-18T21:47:52.559Z,26.27
2018-01-18T21:50:20.376Z,17.13
2018-01-18T21:52:48.214Z,27.90
2018-01-18T21:55:16.016Z,22.57
2018-01-18T21:57:44.668Z,23.13
2018-01-18T22:00:13.251Z,14.50
2018-01-18T22:02:41.822Z,14.20
2018-01-18T22:05:10.354Z,24.13
2018-01-18T22:07:38.186Z,20.73
2018-01-18T22:10:06.045Z,16.37
2018-01-18T22:12:33.998Z,19.70
2018-01-18T22:15:01.823Z,17.83
2018-01-18T22:17:29.687Z,21.43
2018-01-18T22:19:57.479Z,15.67
2018-01-18T22:22:25.303Z,23.93
2018-01-18T22:24:53.180Z,17.47
2018-01-18T22:27:21.037Z,18.85
2018-01-18T22:29:48.812Z,20.00
2018-01-18T22:32:16.654Z,14.10
2018-01-18T22:34:44.518Z,24.33
2018-01-18T22:37:12.327Z,16.53
2018-01-18T22:39:40.130Z,26.80
2018-01-18T22:42:08.659Z,26.20
2018-01-18T22:44:36.483Z,22.70
2018-01-18T22:47:05.008Z,24.43
2018-01-18T22:49:34.049Z,32.77
2018-01-18T22:52:01.852Z,24.30
2018-01-18T22:54:29.625Z,26.97
2018-01-18T22:56:57.481Z,22.93
2018-01-18T22:59:25.383Z,39.13
2018-01-18T23:01:53.175Z,18.23
2018-01-18T23:04:21.720Z,25.03
2018-01-18T23:06:49.502Z,27.23
2018-01-18T23:09:17.271Z,20.23
2018-01-18T23:11:45.119Z,18.83
2018-01-18T23:14:12.912Z,25.97
2018-01-18T23:16:41.443Z,18.60
2018-01-18T23:19:09.249Z,23.73
2018-01-18T23:21:37.046Z,22.83
2018-01-18T23:24:04.837Z,18.90
2018-01-18T23:26:32.700Z,19.60
2018-01-18T23:29:00.495Z,19.40
2018-01-18T23:31:28.327Z,16.43
2018-01-18T23:33:56.108Z,21.90
2018-01-18T23:36:23.948Z,20.97
2018-01-18T23:38:51.724Z,16.70
2018-01-18T23:41:19.646Z,22.23
2018-01-18T23:43:48.297Z,24.30
2018-01-18T23:46:16.163Z,14.00
2018-01-18T23:48:43.980Z,14.07
2018-01-18T23:51:11.797Z,26.00
2018-01-18T23:53:39.615Z,15.03
2018-01-18T23:56:07.459Z,22.90
2018-01-18T23:58:35.255Z,21.60
